Time;durP1;ratioP1;P1;durP2;ratioP2;P2;SDS_P1;SDS_P2;PMS_P1;PMS_P2;Temp;Humidity;BMP_temperature;BMP_pressure;BME280_temperature;BME280_humidity;BME280_pressure;Samples;Min_cycle;Max_cycle;Signal;HPM_P1;HPM_P2
2023/11/28 00:01:56;;;;;;;1.73;1.25;;;7.40;94.30;;;;;;5018308;28;20194;-44
2023/11/28 00:04:26;;;;;;;1.80;1.05;;;7.40;94.20;;;;;;5013355;28;20698;-44
2023/11/28 00:06:54;;;;;;;2.05;0.70;;;7.40;94.30;;;;;;5021708;28;20197;-44
2023/11/28 00:09:23;;;;;;;1.60;0.88;;;7.40;94.20;;;;;;5018830;28;20227;-44
2023/11/28 00:11:52;;;;;;;1.33;0.95;;;7.40;94.20;;;;;;5013277;28;20242;-44
2023/11/28 00:14:20;;;;;;;1.48;0.90;;;7.40;94.20;;;;;;5020042;28;20322;-43
2023/11/28 00:16:48;;;;;;;1.70;1.13;;;7.40;94.20;;;;;;5016158;28;20196;-44
2023/11/28 00:19:17;;;;;;;1.65;1.10;;;7.40;94.20;;;;;;5026161;28;20240;-46
2023/11/28 00:21:46;;;;;;;1.63;0.95;;;7.40;94.20;;;;;;5024880;28;20200;-44
2023/11/28 00:24:17;;;;;;;2.17;1.00;;;7.40;94.20;;;;;;5027715;28;20273;-45
2023/11/28 00:26:45;;;;;;;1.25;0.93;;;7.40;94.20;;;;;;5017906;28;20192;-43
2023/11/28 00:29:13;;;;;;;1.95;1.10;;;7.40;94.20;;;;;;5020014;28;20272;-44
2023/11/28 00:31:42;;;;;;;1.80;1.40;;;7.40;94.20;;;;;;5027247;28;20196;-44
2023/11/28 00:34:11;;;;;;;2.50;1.30;;;7.40;94.20;;;;;;5011277;28;20312;-44
2023/11/28 00:36:39;;;;;;;2.20;1.00;;;7.40;94.20;;;;;;5023457;28;20575;-45
2023/11/28 00:39:11;;;;;;;1.50;1.20;;;7.40;94.10;;;;;;5022247;28;20220;-44
2023/11/28 00:41:40;;;;;;;1.75;1.05;;;7.40;94.10;;;;;;5013346;28;20225;-45
2023/11/28 00:44:08;;;;;;;1.83;1.00;;;7.30;94.10;;;;;;5029368;28;20657;-45
2023/11/28 00:46:40;;;;;;;2.03;1.17;;;7.40;94.10;;;;;;5020145;28;20225;-45
2023/11/28 00:49:08;;;;;;;2.08;1.35;;;7.40;94.10;;;;;;5017461;28;20225;-46
2023/11/28 00:51:36;;;;;;;1.80;1.10;;;7.40;94.10;;;;;;5026728;28;20245;-44
2023/11/28 00:54:05;;;;;;;1.75;1.20;;;7.40;94.10;;;;;;5018441;28;20265;-44
2023/11/28 00:56:34;;;;;;;1.90;1.27;;;7.30;94.00;;;;;;5012814;28;20190;-43
2023/11/28 00:59:04;;;;;;;2.33;1.38;;;7.40;94.10;;;;;;5024097;28;20251;-45
2023/11/28 01:01:32;;;;;;;1.77;1.40;;;7.30;94.00;;;;;;5025976;28;20189;-43
2023/11/28 01:04:01;;;;;;;1.50;1.10;;;7.40;94.00;;;;;;5021063;28;20705;-45
2023/11/28 01:06:31;;;;;;;1.92;1.40;;;7.30;94.00;;;;;;5021767;28;20214;-45
2023/11/28 01:09:00;;;;;;;1.60;0.90;;;7.30;94.00;;;;;;5023486;28;20224;-44
2023/11/28 01:11:28;;;;;;;2.05;1.48;;;7.40;94.10;;;;;;5011819;28;20197;-46
2023/11/28 01:13:58;;;;;;;1.85;1.25;;;7.40;94.00;;;;;;5023708;28;20628;-45
2023/11/28 01:16:26;;;;;;;1.42;0.90;;;7.30;94.00;;;;;;5014467;28;20236;-46
2023/11/28 01:18:55;;;;;;;1.52;1.20;;;7.30;94.00;;;;;;5023182;28;20309;-45
2023/11/28 01:21:23;;;;;;;1.73;1.23;;;7.30;94.00;;;;;;5018590;28;20207;-44
2023/11/28 01:23:51;;;;;;;2.40;1.77;;;7.30;94.00;;;;;;5023134;28;20212;-44
2023/11/28 01:26:20;;;;;;;1.58;1.15;;;7.30;94.00;;;;;;5019222;28;20247;-44
2023/11/28 01:28:48;;;;;;;2.25;1.20;;;7.40;94.00;;;;;;5020550;28;20224;-43
2023/11/28 01:31:18;;;;;;;3.17;1.40;;;7.30;94.00;;;;;;5021634;28;20197;-46
2023/11/28 01:33:46;;;;;;;2.03;1.33;;;7.30;94.00;;;;;;5016107;28;20203;-46
2023/11/28 01:36:14;;;;;;;1.50;1.17;;;7.30;94.00;;;;;;5013619;28;20263;-43
2023/11/28 01:38:46;;;;;;;1.63;1.10;;;7.40;94.00;;;;;;5021531;28;20223;-49
2023/11/28 01:41:16;;;;;;;2.33;1.30;;;7.30;93.90;;;;;;5019872;28;20564;-44
2023/11/28 01:43:44;;;;;;;1.50;0.93;;;7.30;93.90;;;;;;5027285;28;20222;-44
2023/11/28 01:46:12;;;;;;;1.40;0.80;;;7.30;93.90;;;;;;5023753;28;20567;-44
2023/11/28 01:48:42;;;;;;;2.33;1.33;;;7.30;93.90;;;;;;5011962;28;20227;-46
2023/11/28 01:51:10;;;;;;;3.92;1.00;;;7.30;93.90;;;;;;5029421;28;20279;-44
2023/11/28 01:53:40;;;;;;;1.70;1.20;;;7.30;93.90;;;;;;5022244;28;20251;-46
2023/11/28 01:56:10;;;;;;;2.17;1.30;;;7.30;93.90;;;;;;5017684;28;20194;-44
2023/11/28 01:58:38;;;;;;;1.52;0.93;;;7.30;93.90;;;;;;5026156;28;20228;-45
2023/11/28 02:01:08;;;;;;;1.75;1.25;;;7.30;93.90;;;;;;5021284;28;20204;-45
2023/11/28 02:03:37;;;;;;;1.60;0.88;;;7.30;93.80;;;;;;5024696;28;20201;-46
2023/11/28 02:06:09;;;;;;;2.40;2.00;;;7.30;93.80;;;;;;5018668;28;20229;-44
2023/11/28 02:08:38;;;;;;;1.80;1.20;;;7.30;93.80;;;;;;5025957;28;20495;-45
2023/11/28 02:11:06;;;;;;;1.50;0.95;;;7.30;93.80;;;;;;5010022;28;20218;-45
2023/11/28 02:13:35;;;;;;;1.73;1.00;;;7.30;93.80;;;;;;5025185;28;20202;-45
2023/11/28 02:16:10;;;;;;;1.63;1.02;;;7.30;93.80;;;;;;5016423;28;20219;-46
2023/11/28 02:18:39;;;;;;;1.45;1.05;;;7.30;93.70;;;;;;5025506;28;20210;-46
2023/11/28 02:21:10;;;;;;;1.80;1.30;;;7.30;93.70;;;;;;5018364;28;20213;-44
2023/11/28 02:23:38;;;;;;;1.90;1.00;;;7.30;93.70;;;;;;5025893;28;20202;-44
2023/11/28 02:26:17;;;;;;;1.70;1.20;;;7.30;93.70;;;;;;5013972;28;20235;-45
2023/11/28 02:28:45;;;;;;;2.10;1.30;;;7.30;93.70;;;;;;5018522;28;20327;-46
2023/11/28 02:31:14;;;;;;;1.85;1.00;;;7.30;93.70;;;;;;5026180;28;20201;-46
2023/11/28 02:33:42;;;;;;;1.65;1.15;;;7.30;93.70;;;;;;5021109;28;20302;-45
2023/11/28 02:36:11;;;;;;;1.55;1.20;;;7.30;93.70;;;;;;5022716;28;20242;-45
2023/11/28 02:38:39;;;;;;;1.63;1.10;;;7.30;94.20;;;;;;5016292;28;20570;-45
2023/11/28 02:41:07;;;;;;;1.85;1.40;;;7.30;93.70;;;;;;5018247;28;20227;-46
2023/11/28 02:43:37;;;;;;;1.80;1.20;;;7.30;93.70;;;;;;5019603;28;20282;-47
2023/11/28 02:46:05;;;;;;;2.22;1.70;;;7.30;93.60;;;;;;5021358;28;20284;-44
2023/11/28 02:48:33;;;;;;;1.75;1.23;;;7.30;93.70;;;;;;5024356;28;20253;-43
2023/11/28 02:51:01;;;;;;;1.73;1.23;;;7.30;93.60;;;;;;5017388;28;20306;-46
2023/11/28 02:53:30;;;;;;;1.58;1.10;;;7.30;93.60;;;;;;5021116;28;20255;-47
2023/11/28 02:55:58;;;;;;;2.55;1.20;;;7.30;93.60;;;;;;5007935;28;20298;-48
2023/11/28 02:58:26;;;;;;;2.35;1.77;;;7.30;93.60;;;;;;5021024;28;20645;-46
2023/11/28 03:00:55;;;;;;;1.70;1.30;;;7.30;93.60;;;;;;5021085;28;20764;-46
2023/11/28 03:03:23;;;;;;;2.28;1.20;;;7.30;93.60;;;;;;5007051;28;20217;-44
2023/11/28 03:05:51;;;;;;;1.63;1.20;;;7.30;93.60;;;;;;5015235;28;20270;-51
2023/11/28 03:08:23;;;;;;;2.22;1.23;;;7.30;93.60;;;;;;5013494;28;20340;-44
2023/11/28 03:10:51;;;;;;;2.65;1.25;;;7.30;93.60;;;;;;5009242;28;20224;-44
2023/11/28 03:13:20;;;;;;;1.50;1.00;;;7.30;93.60;;;;;;5019183;28;20192;-44
2023/11/28 03:15:48;;;;;;;1.52;0.98;;;7.30;93.60;;;;;;5017932;28;20225;-43
2023/11/28 03:18:17;;;;;;;1.40;1.10;;;7.30;93.60;;;;;;5012811;28;20257;-45
2023/11/28 03:20:45;;;;;;;2.25;1.05;;;7.30;93.60;;;;;;5017277;28;20392;-46
2023/11/28 03:23:13;;;;;;;2.65;1.15;;;7.30;93.50;;;;;;5024268;28;20188;-44
2023/11/28 03:25:41;;;;;;;1.73;1.08;;;7.30;93.50;;;;;;5015104;28;20226;-45
2023/11/28 03:28:09;;;;;;;1.38;1.00;;;7.20;93.50;;;;;;5016495;28;20225;-44
2023/11/28 03:30:38;;;;;;;1.58;1.00;;;7.30;93.60;;;;;;5021764;28;20311;-45
2023/11/28 03:33:06;;;;;;;1.42;1.23;;;7.30;93.60;;;;;;5019877;28;20202;-45
2023/11/28 03:35:35;;;;;;;2.03;1.05;;;7.30;93.50;;;;;;5014048;28;20697;-46
2023/11/28 03:38:04;;;;;;;2.67;1.33;;;7.30;93.50;;;;;;5019289;28;20219;-44
2023/11/28 03:40:33;;;;;;;1.83;1.08;;;7.30;93.50;;;;;;5011733;28;20778;-46
2023/11/28 03:43:01;;;;;;;1.55;1.20;;;7.30;93.50;;;;;;5014603;28;20668;-45
2023/11/28 03:45:29;;;;;;;1.42;1.05;;;7.30;93.50;;;;;;5019381;28;20707;-46
2023/11/28 03:47:57;;;;;;;1.17;0.77;;;7.20;93.40;;;;;;5020575;28;20271;-47
2023/11/28 03:50:27;;;;;;;2.05;1.13;;;7.30;93.70;;;;;;5015380;28;20293;-49
2023/11/28 03:52:56;;;;;;;1.85;1.33;;;7.20;93.40;;;;;;5023350;28;20208;-44
2023/11/28 03:55:24;;;;;;;1.50;1.00;;;7.30;93.50;;;;;;5018852;28;20217;-45
2023/11/28 03:57:52;;;;;;;1.73;1.00;;;7.20;93.40;;;;;;5020292;28;20210;-44
2023/11/28 04:00:21;;;;;;;1.20;0.80;;;7.20;93.50;;;;;;5027524;28;20627;-44
2023/11/28 04:02:49;;;;;;;2.00;1.30;;;7.20;93.40;;;;;;5020782;28;20209;-45
2023/11/28 04:05:18;;;;;;;1.60;1.10;;;7.20;93.40;;;;;;5019950;28;20241;-43
2023/11/28 04:07:46;;;;;;;3.10;1.00;;;7.20;93.40;;;;;;5025580;28;20220;-45
2023/11/28 04:10:16;;;;;;;1.80;1.10;;;7.20;93.40;;;;;;5018240;28;20232;-43
2023/11/28 04:12:44;;;;;;;2.08;1.27;;;7.20;93.40;;;;;;5016285;28;20297;-44
2023/11/28 04:15:13;;;;;;;1.50;0.90;;;7.20;93.40;;;;;;5023111;28;20226;-44
2023/11/28 04:17:41;;;;;;;1.77;1.20;;;7.20;93.40;;;;;;5020203;28;20220;-44
2023/11/28 04:20:11;;;;;;;1.65;1.30;;;7.20;93.40;;;;;;5012011;28;20242;-44
2023/11/28 04:22:39;;;;;;;1.80;1.20;;;7.20;93.40;;;;;;5018493;28;20558;-47
2023/11/28 04:25:08;;;;;;;1.30;1.10;;;7.20;93.40;;;;;;5019532;28;20224;-44
2023/11/28 04:27:38;;;;;;;2.97;1.25;;;7.20;93.40;;;;;;5005365;28;20238;-45
2023/11/28 04:30:08;;;;;;;2.05;1.30;;;7.20;93.40;;;;;;5016549;28;20217;-44
2023/11/28 04:32:37;;;;;;;2.35;1.60;;;7.20;93.40;;;;;;5018393;28;20295;-45
2023/11/28 04:35:08;;;;;;;1.85;1.08;;;7.20;93.40;;;;;;5007160;28;20700;-46
2023/11/28 04:37:36;;;;;;;1.48;1.08;;;7.20;93.40;;;;;;5016402;28;20284;-46
2023/11/28 04:40:06;;;;;;;1.42;0.98;;;7.20;93.40;;;;;;5012606;28;20730;-48
2023/11/28 04:42:35;;;;;;;1.70;1.17;;;7.20;93.40;;;;;;5017019;28;20202;-44
2023/11/28 04:45:05;;;;;;;3.15;1.50;;;7.20;93.30;;;;;;5014942;28;20241;-44
2023/11/28 04:47:33;;;;;;;1.48;1.00;;;7.20;93.40;;;;;;5025361;28;20233;-44
2023/11/28 04:50:02;;;;;;;3.65;1.10;;;7.20;93.30;;;;;;5019490;28;20220;-50
2023/11/28 04:52:30;;;;;;;2.00;1.80;;;7.20;93.30;;;;;;5014387;28;20190;-46
2023/11/28 04:54:58;;;;;;;2.00;1.15;;;7.20;93.30;;;;;;5023245;28;20212;-47
2023/11/28 04:57:26;;;;;;;1.80;1.60;;;7.20;93.30;;;;;;5016499;28;20610;-45
2023/11/28 04:59:54;;;;;;;2.25;1.70;;;7.20;93.30;;;;;;5028180;28;20223;-49
2023/11/28 05:02:23;;;;;;;1.70;1.40;;;7.20;93.30;;;;;;5026155;28;20182;-45
2023/11/28 05:04:52;;;;;;;3.08;2.28;;;7.20;93.30;;;;;;5027686;28;20296;-47
2023/11/28 05:07:20;;;;;;;2.17;1.60;;;7.20;93.30;;;;;;5027343;28;20221;-45
2023/11/28 05:09:49;;;;;;;2.78;1.70;;;7.20;93.30;;;;;;5026237;28;20241;-45
2023/11/28 05:12:17;;;;;;;2.13;1.90;;;7.20;93.30;;;;;;5015706;28;20199;-45
2023/11/28 05:14:46;;;;;;;1.80;1.58;;;7.20;93.30;;;;;;5022039;28;20271;-44
2023/11/28 05:17:14;;;;;;;2.15;1.75;;;7.20;93.30;;;;;;5027956;28;20264;-44
2023/11/28 05:19:43;;;;;;;1.95;1.75;;;7.20;93.30;;;;;;5025721;28;20232;-43
2023/11/28 05:22:12;;;;;;;2.70;2.00;;;7.20;93.30;;;;;;5020421;28;20690;-45
2023/11/28 05:24:41;;;;;;;2.90;1.67;;;7.20;93.30;;;;;;5026746;28;20225;-47
2023/11/28 05:27:09;;;;;;;2.03;1.80;;;7.20;93.30;;;;;;5010213;28;20309;-45
2023/11/28 05:29:37;;;;;;;1.90;1.75;;;7.20;93.30;;;;;;5027700;28;20217;-44
2023/11/28 05:32:06;;;;;;;2.15;1.70;;;7.20;93.30;;;;;;5020262;28;20186;-46
2023/11/28 05:34:34;;;;;;;2.28;2.08;;;7.20;93.30;;;;;;5017718;28;20782;-45
2023/11/28 05:37:04;;;;;;;3.28;1.90;;;7.20;93.30;;;;;;5021198;28;20301;-44
2023/11/28 05:39:32;;;;;;;2.28;1.95;;;7.20;93.30;;;;;;5024989;28;20232;-43
2023/11/28 05:42:00;;;;;;;2.65;2.10;;;7.20;93.30;;;;;;5018073;28;20656;-44
2023/11/28 05:44:28;;;;;;;2.08;1.80;;;7.20;93.30;;;;;;5021254;28;20215;-44
2023/11/28 05:46:56;;;;;;;2.50;2.30;;;7.20;93.30;;;;;;5019363;28;20209;-45
2023/11/28 05:49:24;;;;;;;2.53;2.30;;;7.20;93.30;;;;;;5009461;28;20750;-44
2023/11/28 05:51:53;;;;;;;2.00;1.80;;;7.20;93.30;;;;;;5026895;28;20206;-44
2023/11/28 05:54:22;;;;;;;2.40;2.10;;;7.20;93.30;;;;;;5019015;28;20217;-46
2023/11/28 05:56:50;;;;;;;2.50;2.30;;;7.20;93.30;;;;;;5008199;28;20198;-44
2023/11/28 05:59:19;;;;;;;2.72;2.17;;;7.10;93.20;;;;;;5017474;28;20228;-46
2023/11/28 06:01:59;;;;;;;2.92;2.58;;;7.20;93.30;;;;;;5023911;28;20197;-46
2023/11/28 06:04:29;;;;;;;2.90;2.40;;;7.20;93.20;;;;;;5021304;28;20213;-44
2023/11/28 06:06:58;;;;;;;3.47;3.17;;;7.20;93.20;;;;;;5014737;28;20206;-46
2023/11/28 06:09:28;;;;;;;2.85;2.45;;;7.20;93.20;;;;;;5016679;28;20253;-44
2023/11/28 06:11:57;;;;;;;2.72;2.53;;;7.20;93.20;;;;;;5011965;28;20197;-47
2023/11/28 06:14:30;;;;;;;3.00;2.70;;;7.10;93.20;;;;;;5011140;28;20220;-45
2023/11/28 06:16:59;;;;;;;3.25;2.90;;;7.20;93.20;;;;;;5019625;28;20201;-46
2023/11/28 06:19:28;;;;;;;2.92;2.47;;;7.10;93.10;;;;;;5027686;28;20647;-44
2023/11/28 06:21:56;;;;;;;3.28;2.65;;;7.10;93.10;;;;;;5013747;28;20693;-45
2023/11/28 06:24:25;;;;;;;2.95;2.75;;;7.10;93.10;;;;;;5017701;28;20215;-45
2023/11/28 06:26:54;;;;;;;4.25;3.85;;;7.10;93.10;;;;;;5014704;28;20210;-43
2023/11/28 06:29:22;;;;;;;3.30;3.00;;;7.10;93.10;;;;;;5014326;28;20248;-44
2023/11/28 06:31:50;;;;;;;2.45;2.25;;;7.10;93.10;;;;;;5016681;28;20229;-44
2023/11/28 06:34:19;;;;;;;3.53;3.22;;;7.10;93.20;;;;;;5016563;28;20272;-46
2023/11/28 06:36:47;;;;;;;2.83;2.58;;;7.10;93.10;;;;;;5021840;28;20294;-46
2023/11/28 06:39:18;;;;;;;3.40;3.00;;;7.10;93.10;;;;;;5021437;28;20230;-43
2023/11/28 06:41:46;;;;;;;3.15;2.85;;;7.10;93.10;;;;;;5015148;28;20202;-46
2023/11/28 06:44:18;;;;;;;3.58;3.28;;;7.10;93.10;;;;;;5026199;28;20218;-44
2023/11/28 06:46:47;;;;;;;4.13;2.65;;;7.10;93.10;;;;;;5022085;28;20218;-45
2023/11/28 06:49:15;;;;;;;4.10;3.80;;;7.10;93.10;;;;;;5021007;28;20322;-43
2023/11/28 06:51:43;;;;;;;3.63;3.33;;;7.10;93.10;;;;;;5024391;28;20200;-44
2023/11/28 06:54:11;;;;;;;3.83;3.40;;;7.10;93.10;;;;;;5026757;28;20248;-45
2023/11/28 06:56:39;;;;;;;3.35;3.05;;;7.10;93.10;;;;;;5009488;28;20280;-44
2023/11/28 06:59:07;;;;;;;3.15;2.85;;;7.10;93.10;;;;;;5025454;28;20653;-44
2023/11/28 07:01:42;;;;;;;4.00;3.03;;;7.10;93.10;;;;;;5027891;28;20272;-46
2023/11/28 07:04:10;;;;;;;3.15;2.85;;;7.10;93.10;;;;;;5023227;28;20209;-45
2023/11/28 07:06:38;;;;;;;3.10;2.80;;;7.10;93.10;;;;;;5023089;28;20214;-46
2023/11/28 07:09:06;;;;;;;3.92;3.30;;;7.10;93.10;;;;;;5025043;28;20315;-44
2023/11/28 07:11:34;;;;;;;3.60;3.17;;;7.10;93.10;;;;;;5014012;28;20258;-46
2023/11/28 07:14:03;;;;;;;3.55;3.22;;;7.10;93.10;;;;;;5026082;28;20270;-45
2023/11/28 07:16:31;;;;;;;3.65;3.35;;;7.10;93.10;;;;;;5023519;28;20195;-45
2023/11/28 07:19:01;;;;;;;3.80;3.50;;;7.10;93.10;;;;;;5012201;28;20316;-44
2023/11/28 07:21:29;;;;;;;3.55;3.10;;;7.10;93.10;;;;;;5027823;28;20212;-45
2023/11/28 07:23:57;;;;;;;3.85;3.15;;;7.10;93.60;;;;;;5026265;28;20225;-45
2023/11/28 07:26:25;;;;;;;3.90;3.50;;;7.10;93.10;;;;;;5004195;28;20191;-45
2023/11/28 07:28:53;;;;;;;4.28;3.88;;;7.10;93.10;;;;;;5018121;28;20292;-46
2023/11/28 07:31:21;;;;;;;3.40;3.03;;;7.10;93.10;;;;;;5022600;28;20237;-45
2023/11/28 07:33:50;;;;;;;4.88;3.50;;;7.10;93.10;;;;;;5012073;28;20216;-50
2023/11/28 07:36:19;;;;;;;3.60;3.28;;;7.10;93.00;;;;;;5024281;28;20196;-43
2023/11/28 07:38:49;;;;;;;3.40;3.10;;;7.10;93.10;;;;;;5023119;28;20703;-46
2023/11/28 07:41:17;;;;;;;4.05;3.60;;;7.10;93.00;;;;;;5012036;28;20479;-47
2023/11/28 07:43:45;;;;;;;4.82;3.28;;;7.00;93.00;;;;;;5020520;28;20679;-45
2023/11/28 07:46:13;;;;;;;3.40;3.00;;;7.10;93.00;;;;;;5009331;28;20222;-44
2023/11/28 07:48:42;;;;;;;5.00;3.67;;;7.10;93.50;;;;;;5010216;28;20241;-44
2023/11/28 07:51:10;;;;;;;4.10;3.70;;;7.10;93.00;;;;;;5001481;28;20327;-44
2023/11/28 07:53:39;;;;;;;4.97;4.43;;;7.10;93.10;;;;;;5010296;28;20261;-44
2023/11/28 07:56:09;;;;;;;3.53;3.22;;;7.10;93.00;;;;;;5003102;28;20223;-44
2023/11/28 07:58:38;;;;;;;4.13;3.58;;;7.10;93.00;;;;;;5010314;28;20257;-45
2023/11/28 08:01:06;;;;;;;4.10;3.70;;;7.10;93.00;;;;;;5008957;28;20599;-47
2023/11/28 08:03:35;;;;;;;3.35;3.05;;;7.00;92.90;;;;;;5010034;28;20191;-44
2023/11/28 08:06:03;;;;;;;3.45;3.15;;;7.00;93.00;;;;;;5001000;28;20699;-44
2023/11/28 08:08:31;;;;;;;4.22;3.58;;;7.00;92.90;;;;;;5023756;28;20206;-46
2023/11/28 08:11:01;;;;;;;4.05;3.65;;;7.00;92.90;;;;;;5002796;28;20224;-44
2023/11/28 08:13:31;;;;;;;4.20;3.55;;;7.00;92.90;;;;;;5010108;28;20232;-44
2023/11/28 08:15:59;;;;;;;4.22;3.83;;;7.00;92.90;;;;;;5009068;28;20219;-45
2023/11/28 08:18:28;;;;;;;3.50;3.20;;;7.00;92.90;;;;;;5011638;28;20214;-46
2023/11/28 08:21:02;;;;;;;3.50;3.20;;;7.00;92.90;;;;;;5006643;28;20746;-46
2023/11/28 08:23:30;;;;;;;3.40;3.10;;;7.00;92.90;;;;;;5011358;28;20232;-45
2023/11/28 08:25:58;;;;;;;3.83;3.53;;;7.00;92.90;;;;;;5005335;28;20258;-48
2023/11/28 08:28:28;;;;;;;3.95;3.55;;;7.00;92.90;;;;;;5013379;28;20220;-47
2023/11/28 08:30:56;;;;;;;3.83;3.50;;;7.00;92.80;;;;;;5012602;28;20222;-46
2023/11/28 08:33:25;;;;;;;5.07;3.30;;;7.00;92.90;;;;;;4991406;28;20192;-45
2023/11/28 08:35:53;;;;;;;3.20;2.90;;;7.00;92.80;;;;;;5009429;28;20215;-43
2023/11/28 08:38:21;;;;;;;3.15;2.90;;;7.00;92.80;;;;;;5012674;28;20218;-50
2023/11/28 08:40:53;;;;;;;3.10;2.90;;;7.00;92.80;;;;;;5008749;28;20221;-44
2023/11/28 08:43:21;;;;;;;3.80;3.10;;;7.00;92.80;;;;;;5012385;28;20983;-45
2023/11/28 08:45:50;;;;;;;4.15;3.10;;;7.00;92.80;;;;;;5012864;28;20233;-44
2023/11/28 08:48:19;;;;;;;6.00;3.97;;;7.00;92.80;;;;;;5012739;28;20592;-45
2023/11/28 08:50:47;;;;;;;3.05;2.75;;;7.00;92.80;;;;;;5007028;28;20219;-44
2023/11/28 08:53:15;;;;;;;3.90;3.50;;;7.00;92.80;;;;;;5013259;28;20224;-43
2023/11/28 08:55:44;;;;;;;3.30;3.00;;;7.00;92.70;;;;;;5005960;28;20317;-43
2023/11/28 08:58:12;;;;;;;4.30;3.90;;;7.00;92.70;;;;;;5012430;28;20222;-45
2023/11/28 09:00:40;;;;;;;3.80;3.00;;;7.00;92.70;;;;;;5012111;28;20296;-47
2023/11/28 09:03:10;;;;;;;3.58;3.28;;;7.00;92.70;;;;;;5012613;28;20204;-46
2023/11/28 09:05:38;;;;;;;2.95;2.65;;;7.00;92.70;;;;;;5009152;28;20226;-44
2023/11/28 09:08:06;;;;;;;3.72;3.05;;;7.00;93.20;;;;;;5011805;28;20490;-44
2023/11/28 09:10:34;;;;;;;3.15;2.85;;;7.00;92.70;;;;;;4992164;28;20221;-47
2023/11/28 09:13:02;;;;;;;4.57;3.10;;;7.00;92.70;;;;;;4991240;28;20192;-46
2023/11/28 09:15:30;;;;;;;3.80;2.90;;;7.00;92.60;;;;;;5018238;28;20279;-46
2023/11/28 09:17:58;;;;;;;3.35;3.05;;;7.00;92.60;;;;;;5026280;28;20265;-49
2023/11/28 09:20:28;;;;;;;3.72;3.35;;;7.00;92.60;;;;;;4989863;28;20219;-46
2023/11/28 09:22:57;;;;;;;3.10;2.75;;;6.90;92.50;;;;;;5004045;28;20224;-45
2023/11/28 09:25:25;;;;;;;3.30;2.90;;;7.00;92.60;;;;;;4989379;28;20581;-44
2023/11/28 09:27:53;;;;;;;2.70;2.50;;;7.00;92.60;;;;;;4996797;28;20216;-46
2023/11/28 09:30:21;;;;;;;3.20;2.90;;;7.00;92.60;;;;;;4992908;28;20310;-45
2023/11/28 09:32:51;;;;;;;3.55;3.00;;;6.90;92.50;;;;;;5004511;28;20227;-44
2023/11/28 09:35:19;;;;;;;3.15;2.85;;;7.00;92.50;;;;;;5000765;28;20288;-46
2023/11/28 09:37:52;;;;;;;3.38;3.08;;;7.00;92.50;;;;;;5004566;28;20228;-44
2023/11/28 09:40:20;;;;;;;2.70;2.50;;;7.00;92.50;;;;;;5000292;28;20229;-47
2023/11/28 09:42:52;;;;;;;3.00;2.42;;;7.00;93.00;;;;;;4998295;28;20652;-45
2023/11/28 09:45:22;;;;;;;3.22;2.92;;;7.00;92.60;;;;;;5009531;28;20218;-44
2023/11/28 09:47:53;;;;;;;2.70;2.50;;;7.00;92.50;;;;;;5007236;28;20755;-43
2023/11/28 09:50:24;;;;;;;3.55;3.25;;;7.00;92.50;;;;;;5001872;28;20233;-45
2023/11/28 09:52:55;;;;;;;3.80;2.70;;;7.00;92.50;;;;;;5007931;28;20190;-47
2023/11/28 09:55:24;;;;;;;2.60;2.40;;;7.00;92.50;;;;;;5003514;28;20343;-44
2023/11/28 09:57:55;;;;;;;2.50;2.30;;;7.00;92.50;;;;;;5019159;28;20632;-49
2023/11/28 10:00:25;;;;;;;3.08;2.83;;;6.90;92.50;;;;;;5014839;28;20259;-44
2023/11/28 10:02:55;;;;;;;4.15;2.85;;;6.90;92.50;;;;;;5026602;28;20199;-45
2023/11/28 10:05:23;;;;;;;2.90;2.60;;;7.00;92.50;;;;;;5014944;28;20209;-45
2023/11/28 10:07:56;;;;;;;2.53;2.33;;;6.90;92.50;;;;;;5028065;28;20225;-44
2023/11/28 10:10:25;;;;;;;3.20;2.90;;;6.90;92.50;;;;;;5007634;28;20713;-43
2023/11/28 10:12:54;;;;;;;3.20;2.67;;;6.90;92.50;;;;;;5016012;28;20273;-45
2023/11/28 10:15:25;;;;;;;2.47;2.28;;;6.90;92.50;;;;;;5023491;28;20225;-44
2023/11/28 10:17:53;;;;;;;2.88;2.55;;;6.90;92.50;;;;;;5027594;28;20293;-48
2023/11/28 10:20:24;;;;;;;2.60;2.40;;;6.90;92.50;;;;;;5017752;28;20224;-45
2023/11/28 10:22:56;;;;;;;3.28;2.65;;;6.90;92.50;;;;;;5021021;28;20194;-43
2023/11/28 10:25:24;;;;;;;2.90;2.70;;;6.90;92.50;;;;;;5013135;28;20215;-44
2023/11/28 10:27:58;;;;;;;2.38;2.10;;;6.90;92.50;;;;;;5017303;28;20210;-44
2023/11/28 10:30:27;;;;;;;3.05;2.75;;;7.00;92.50;;;;;;5014127;28;20220;-45
2023/11/28 10:32:58;;;;;;;3.20;1.98;;;6.90;92.50;;;;;;5027574;28;20684;-44
2023/11/28 10:35:39;;;;;;;2.10;1.75;;;6.90;92.40;;;;;;5012460;28;20222;-44
2023/11/28 10:38:12;;;;;;;3.00;2.58;;;6.90;92.40;;;;;;5017441;28;20225;-46
2023/11/28 10:40:43;;;;;;;2.42;2.22;;;6.90;92.40;;;;;;5003208;28;20865;-44
2023/11/28 10:43:13;;;;;;;3.60;2.72;;;6.90;92.40;;;;;;5020854;28;20416;-45
2023/11/28 10:45:44;;;;;;;3.05;2.20;;;6.90;92.40;;;;;;5027842;28;20267;-43
2023/11/28 10:48:13;;;;;;;2.55;2.35;;;6.90;92.40;;;;;;5027015;28;20218;-42
2023/11/28 10:50:42;;;;;;;1.83;1.73;;;6.90;92.40;;;;;;5026413;28;20232;-44
2023/11/28 10:53:13;;;;;;;2.40;1.85;;;6.90;92.40;;;;;;5023037;28;20611;-44
2023/11/28 10:55:43;;;;;;;3.42;2.63;;;6.90;92.40;;;;;;5017693;28;20246;-45
2023/11/28 10:58:15;;;;;;;2.45;2.25;;;6.90;92.40;;;;;;5025365;28;20627;-44
2023/11/28 11:00:45;;;;;;;2.58;1.90;;;6.90;92.40;;;;;;5028733;28;20233;-43
2023/11/28 11:03:14;;;;;;;2.22;2.03;;;6.90;92.40;;;;;;5028177;28;20200;-45
2023/11/28 11:05:44;;;;;;;2.10;1.90;;;6.90;92.40;;;;;;5026368;28;20710;-44
2023/11/28 11:08:13;;;;;;;2.78;2.25;;;6.90;92.40;;;;;;5019836;28;20214;-44
2023/11/28 11:10:42;;;;;;;3.17;2.25;;;6.90;92.40;;;;;;5016856;28;20657;-43
2023/11/28 11:13:22;;;;;;;2.55;2.35;;;6.90;92.40;;;;;;5018591;28;20249;-45
2023/11/28 11:16:01;;;;;;;2.25;1.67;;;6.90;92.40;;;;;;5021479;28;20248;-43
2023/11/28 11:18:38;;;;;;;2.08;1.88;;;6.90;92.90;;;;;;5015651;28;20224;-43
2023/11/28 11:21:15;;;;;;;1.83;1.60;;;6.90;92.40;;;;;;5017953;28;20323;-47
2023/11/28 11:23:47;;;;;;;2.33;2.00;;;6.90;92.40;;;;;;5021176;28;20290;-43
2023/11/28 11:26:16;;;;;;;3.35;2.30;;;6.90;92.40;;;;;;5012818;28;20220;-47
2023/11/28 11:28:44;;;;;;;2.17;1.77;;;6.90;92.40;;;;;;5028005;28;20217;-44
2023/11/28 11:31:15;;;;;;;2.58;2.35;;;6.90;92.40;;;;;;5027104;28;20269;-45
2023/11/28 11:33:44;;;;;;;1.95;1.58;;;6.90;92.40;;;;;;5019570;28;20200;-45
2023/11/28 11:36:14;;;;;;;1.98;1.77;;;6.90;92.40;;;;;;5026229;28;20217;-45
2023/11/28 11:38:46;;;;;;;2.05;1.80;;;6.90;92.40;;;;;;5027335;28;20224;-47
2023/11/28 11:41:16;;;;;;;2.55;2.00;;;6.90;92.40;;;;;;5011567;28;20208;-43
2023/11/28 11:43:45;;;;;;;2.13;1.92;;;6.90;92.40;;;;;;5023613;28;20219;-45
2023/11/28 11:46:16;;;;;;;3.83;2.03;;;6.90;92.40;;;;;;5027475;28;20218;-44
2023/11/28 11:48:44;;;;;;;2.10;1.90;;;6.90;92.40;;;;;;5010396;28;20706;-45
2023/11/28 11:51:13;;;;;;;1.95;1.75;;;6.90;92.40;;;;;;5024323;28;20222;-45
2023/11/28 11:53:42;;;;;;;2.33;1.50;;;6.90;92.40;;;;;;5016793;28;20281;-44
2023/11/28 11:56:12;;;;;;;2.40;2.13;;;6.90;92.40;;;;;;5005321;28;20249;-47
2023/11/28 11:58:42;;;;;;;2.33;2.03;;;6.90;92.70;;;;;;5014771;28;20277;-45
2023/11/28 12:01:12;;;;;;;2.25;1.90;;;6.90;92.40;;;;;;5026300;28;20263;-46
2023/11/28 12:03:40;;;;;;;2.40;2.20;;;6.90;92.40;;;;;;5026163;28;20674;-44
2023/11/28 12:06:09;;;;;;;2.55;1.80;;;6.90;92.40;;;;;;5009643;28;20655;-45
2023/11/28 12:08:38;;;;;;;2.60;2.05;;;6.90;92.40;;;;;;5028387;28;20213;-45
2023/11/28 12:11:08;;;;;;;2.55;1.42;;;6.90;92.40;;;;;;5014319;28;20221;-44
2023/11/28 12:13:38;;;;;;;1.88;1.50;;;6.90;92.40;;;;;;5029046;28;20206;-46
2023/11/28 12:16:28;;;;;;;2.60;2.40;;;6.90;92.30;;;;;;5019367;28;20216;-43
2023/11/28 12:19:16;;;;;;;2.00;1.73;;;6.90;92.90;;;;;;5023411;28;20599;-44
2023/11/28 12:22:05;;;;;;;2.85;1.90;;;6.90;92.40;;;;;;5020576;28;20572;-44
2023/11/28 12:24:33;;;;;;;2.25;2.05;;;6.90;92.30;;;;;;5028397;28;20272;-44
2023/11/28 12:27:03;;;;;;;2.03;1.83;;;6.90;92.40;;;;;;5012385;28;20618;-48
2023/11/28 12:29:32;;;;;;;2.30;1.80;;;6.90;92.30;;;;;;5015545;28;20281;-45
2023/11/28 12:32:02;;;;;;;2.30;2.08;;;6.90;92.30;;;;;;5024799;28;20241;-45
2023/11/28 12:34:31;;;;;;;2.47;1.88;;;6.90;92.30;;;;;;5015279;28;20799;-45
2023/11/28 12:37:00;;;;;;;6.32;1.92;;;6.90;92.30;;;;;;5024742;28;20243;-45
2023/11/28 12:39:29;;;;;;;2.95;1.70;;;6.90;92.30;;;;;;5027523;28;20304;-46
2023/11/28 12:41:58;;;;;;;3.17;2.00;;;6.80;92.30;;;;;;5007993;28;20718;-44
2023/11/28 12:44:28;;;;;;;3.20;2.20;;;6.90;92.30;;;;;;5018361;28;20223;-46
2023/11/28 12:46:57;;;;;;;1.90;1.55;;;6.80;92.30;;;;;;5023858;28;20251;-46
2023/11/28 12:49:28;;;;;;;2.33;2.13;;;6.90;92.20;;;;;;4997076;28;20217;-44
2023/11/28 12:51:57;;;;;;;2.40;1.92;;;6.80;92.20;;;;;;5028258;28;20213;-47
2023/11/28 12:54:26;;;;;;;2.22;2.03;;;6.80;92.20;;;;;;5018556;28;20218;-46
2023/11/28 12:56:54;;;;;;;2.00;1.80;;;6.80;92.20;;;;;;5013419;28;20202;-44
2023/11/28 12:59:23;;;;;;;2.88;2.40;;;6.80;92.10;;;;;;5027824;28;20236;-44
2023/11/28 13:01:52;;;;;;;2.30;1.90;;;6.80;92.10;;;;;;5028296;28;20198;-44
2023/11/28 13:04:24;;;;;;;3.38;3.00;;;6.80;91.90;;;;;;5017920;28;20211;-44
2023/11/28 13:06:54;;;;;;;2.33;2.10;;;6.80;90.60;;;;;;5011538;28;20210;-44
2023/11/28 13:09:41;;;;;;;2.40;2.20;;;6.80;91.00;;;;;;5010508;28;20210;-45